Terminal Aerodrome Forecast
Issued by NWS Paducah, KY

Home | Current Version | Previous Version | Text Only | Print | Product List | Glossary On
Versions: 1 2 3 4 5 6 7 8 9 10 11 12 13
131
FTUS43 KPAH 121120
TAFEVV
TAF
KEVV 121120Z 1212/1312 33015G24KT P6SM OVC025
     FM121400 32015G24KT P6SM BKN050
     FM121500 32015G23KT P6SM SCT150
     FM122300 30008KT P6SM FEW250
     FM130100 28004KT P6SM FEW250
     FM131000 22004KT P6SM FEW200=

USA.gov is the U.S. government's official web portal to all federal, state and local government web resources and services.